Time;durP1;ratioP1;P1;durP2;ratioP2;P2;SDS_P1;SDS_P2;PMS_P1;PMS_P2;Temp;Humidity;BMP_temperature;BMP_pressure;BME280_temperature;BME280_humidity;BME280_pressure;Samples;Min_cycle;Max_cycle;Signal;HPM_P1;HPM_P2
2023/12/30 00:01:59;;;;;;;14.33;8.53;;;;;;;6.28;84.89;99487.62;1676002;85;25532;-51
2023/12/30 00:04:25;;;;;;;16.90;9.90;;;;;;;6.28;85.03;99484.94;1652509;85;27412;-51
2023/12/30 00:06:52;;;;;;;15.85;8.70;;;;;;;6.27;85.35;99482.02;1652324;85;25459;-53
2023/12/30 00:09:18;;;;;;;14.03;8.63;;;;;;;6.28;85.29;99478.22;1675965;85;25466;-51
2023/12/30 00:11:44;;;;;;;15.63;8.70;;;;;;;6.29;85.30;99471.77;1675908;85;25605;-50
2023/12/30 00:14:11;;;;;;;17.12;9.05;;;;;;;6.28;85.53;99469.64;1675996;85;25411;-50
2023/12/30 00:16:39;;;;;;;15.60;8.65;;;;;;;6.32;85.48;99481.36;1675920;85;28012;-51
2023/12/30 00:19:06;;;;;;;16.37;9.38;;;;;;;6.33;85.46;99476.25;1675873;85;25508;-51
2023/12/30 00:21:32;;;;;;;17.87;9.15;;;;;;;6.32;85.45;99474.64;1675940;85;25429;-51
2023/12/30 00:23:58;;;;;;;17.27;9.68;;;;;;;6.32;85.55;99475.20;1652431;85;25833;-51
2023/12/30 00:26:26;;;;;;;16.93;9.08;;;;;;;6.30;85.65;99478.19;1675987;85;25582;-52
2023/12/30 00:28:53;;;;;;;20.48;10.23;;;;;;;6.30;85.74;99478.19;1652433;85;27280;-54
2023/12/30 00:31:30;;;;;;;18.60;9.53;;;;;;;6.27;85.64;99467.25;1675859;85;25502;-51
2023/12/30 00:33:59;;;;;;;17.85;9.80;;;;;;;6.27;85.69;99473.96;1652446;85;25464;-50
2023/12/30 00:36:27;;;;;;;19.42;10.05;;;;;;;6.22;85.71;99479.44;1675864;85;25613;-51
2023/12/30 00:38:54;;;;;;;21.10;10.58;;;;;;;6.21;85.61;99480.52;1675928;85;25462;-51
2023/12/30 00:41:23;;;;;;;19.25;9.83;;;;;;;6.18;85.91;99469.84;1675919;85;27352;-53
2023/12/30 00:43:49;;;;;;;16.77;9.77;;;;;;;6.14;85.98;99464.80;1652577;85;25481;-51
2023/12/30 00:46:19;;;;;;;16.42;9.60;;;;;;;6.12;85.96;99470.47;1675947;85;25455;-50
2023/12/30 00:48:46;;;;;;;17.48;9.55;;;;;;;6.09;86.19;99464.91;1675895;85;25618;-49
2023/12/30 00:51:13;;;;;;;17.90;9.55;;;;;;;6.08;86.28;99471.36;1675950;85;25430;-50
2023/12/30 00:53:39;;;;;;;17.77;9.48;;;;;;;6.05;86.33;99465.27;1642471;87;27534;-54
2023/12/30 00:56:06;;;;;;;17.82;9.73;;;;;;;6.03;86.35;99465.56;1620019;87;25608;-51
2023/12/30 00:58:32;;;;;;;15.23;9.25;;;;;;;6.00;86.11;99468.05;1644463;87;25475;-55
2023/12/30 01:00:59;;;;;;;15.65;9.38;;;;;;;5.97;86.26;99470.22;1644451;87;26194;-54
2023/12/30 01:03:25;;;;;;;19.00;9.38;;;;;;;5.94;86.41;99465.96;1598878;87;25513;-51
2023/12/30 01:05:54;;;;;;;20.05;9.43;;;;;;;5.92;86.61;99464.12;1644454;87;27433;-52
2023/12/30 01:08:21;;;;;;;19.20;9.63;;;;;;;5.87;86.77;99455.62;1644478;87;25443;-52
2023/12/30 01:10:47;;;;;;;15.10;8.90;;;;;;;5.86;87.23;99459.41;1644463;87;25503;-51
2023/12/30 01:13:13;;;;;;;18.42;9.73;;;;;;;5.84;86.96;99465.63;1620146;87;26171;-51
2023/12/30 01:15:40;;;;;;;16.85;9.35;;;;;;;5.80;87.12;99456.56;1620076;87;25468;-54
2023/12/30 01:18:06;;;;;;;15.63;8.40;;;;;;;5.77;87.17;99451.27;1644428;87;27480;-50
2023/12/30 01:20:32;;;;;;;15.63;9.38;;;;;;;5.74;87.25;99451.06;1644381;87;25685;-52
2023/12/30 01:22:59;;;;;;;19.20;8.95;;;;;;;5.69;87.45;99451.16;1644483;87;25429;-51
2023/12/30 01:25:25;;;;;;;16.70;8.83;;;;;;;5.69;87.65;99452.50;1644420;87;25469;-51
2023/12/30 01:27:51;;;;;;;14.40;8.58;;;;;;;5.68;87.64;99454.37;1644464;87;25469;-51
2023/12/30 01:30:17;;;;;;;17.02;9.45;;;;;;;5.66;87.66;99453.88;1620389;87;27380;-51
2023/12/30 01:32:45;;;;;;;16.27;8.65;;;;;;;5.65;87.93;99444.22;1619825;87;25536;-51
2023/12/30 01:35:11;;;;;;;13.32;8.43;;;;;;;5.64;88.01;99448.02;1644425;87;25443;-51
2023/12/30 01:37:39;;;;;;;18.75;9.83;;;;;;;5.65;88.02;99443.44;1619852;87;25636;-52
2023/12/30 01:40:06;;;;;;;13.38;8.43;;;;;;;5.66;88.65;99443.14;1644477;87;25468;-50
2023/12/30 01:42:32;;;;;;;14.90;8.63;;;;;;;5.70;88.74;99436.63;1644425;87;27976;-51
2023/12/30 01:44:59;;;;;;;20.20;9.50;;;;;;;5.74;88.80;99440.33;1644349;87;25507;-52
2023/12/30 01:47:25;;;;;;;15.10;7.72;;;;;;;5.78;88.74;99432.71;1620001;87;25416;-51
2023/12/30 01:49:52;;;;;;;17.05;8.33;;;;;;;5.81;88.78;99432.67;1619980;87;25688;-51
2023/12/30 01:52:19;;;;;;;14.45;8.33;;;;;;;5.85;88.78;99433.66;1644458;87;25439;-52
2023/12/30 01:54:45;;;;;;;15.48;9.55;;;;;;;5.90;88.98;99443.51;1644815;86;27997;-53
2023/12/30 01:57:12;;;;;;;14.10;7.78;;;;;;;5.94;89.01;99429.20;1645009;87;25527;-51
2023/12/30 01:59:38;;;;;;;12.45;8.03;;;;;;;6.01;88.88;99430.17;1645142;87;25393;-51
2023/12/30 02:02:05;;;;;;;14.47;8.45;;;;;;;6.05;88.78;99424.44;1620427;87;25735;-53
2023/12/30 02:04:31;;;;;;;15.63;8.45;;;;;;;6.10;88.74;99420.87;1645156;87;25484;-51
2023/12/30 02:06:57;;;;;;;16.15;8.75;;;;;;;6.14;88.58;99421.29;1645129;87;27364;-52
2023/12/30 02:09:24;;;;;;;14.80;7.70;;;;;;;6.18;88.47;99421.52;1645032;87;25489;-52
2023/12/30 02:11:50;;;;;;;14.33;8.10;;;;;;;6.22;88.43;99413.09;1645130;87;25445;-53
2023/12/30 02:14:28;;;;;;;11.05;7.53;;;;;;;6.25;88.31;99411.14;1645070;87;25617;-51
2023/12/30 02:16:54;;;;;;;14.78;8.20;;;;;;;6.29;88.23;99407.31;1645127;87;25436;-51
2023/12/30 02:19:21;;;;;;;14.95;7.62;;;;;;;6.33;88.14;99410.97;1645134;87;27360;-52
2023/12/30 02:21:48;;;;;;;14.00;7.37;;;;;;;6.35;87.94;99424.36;1599066;87;25478;-55
2023/12/30 02:24:14;;;;;;;13.08;7.42;;;;;;;6.41;87.99;99414.84;1645138;87;25411;-54
2023/12/30 02:26:41;;;;;;;14.47;7.92;;;;;;;6.44;87.97;99406.97;1645068;87;25734;-51
2023/12/30 02:29:08;;;;;;;14.58;7.95;;;;;;;6.49;87.87;99400.70;1620598;87;25464;-52
2023/12/30 02:31:45;;;;;;;11.40;6.62;;;;;;;6.52;87.79;99388.80;1620527;87;27907;-54
2023/12/30 02:34:06;;;;;;;13.65;7.15;;;;;;;6.57;87.66;99385.17;1644993;86;25434;-52
2023/12/30 02:36:32;;;;;;;12.28;6.80;;;;;;;6.59;87.57;99381.66;1642397;87;25470;-51
2023/12/30 02:38:58;;;;;;;11.03;6.62;;;;;;;6.63;87.40;99377.25;1645065;87;25690;-51
2023/12/30 02:41:27;;;;;;;12.33;6.15;;;;;;;6.67;87.40;99376.09;1645143;87;25494;-54
2023/12/30 02:44:02;;;;;;;12.50;6.97;;;;;;;6.70;87.36;99364.17;1645129;87;27349;-55
2023/12/30 02:46:29;;;;;;;10.95;6.90;;;;;;;6.76;86.99;99364.05;1620493;87;25696;-53
2023/12/30 02:48:57;;;;;;;12.33;6.67;;;;;;;6.81;87.26;99359.89;1620907;87;25461;-53
2023/12/30 02:51:24;;;;;;;10.70;6.85;;;;;;;6.85;87.06;99362.23;1645230;87;26264;-53
2023/12/30 02:53:51;;;;;;;12.70;6.70;;;;;;;6.89;86.77;99367.23;1622705;85;25517;-52
2023/12/30 02:56:22;;;;;;;10.43;6.28;;;;;;;6.93;86.80;99364.19;1612639;86;27343;-51
2023/12/30 02:58:56;;;;;;;12.10;6.70;;;;;;;6.98;86.84;99367.28;1660149;86;25700;-55
2023/12/30 03:01:25;;;;;;;11.35;6.72;;;;;;;7.01;86.70;99377.42;1660779;86;25433;-51
2023/12/30 03:03:54;;;;;;;9.33;5.40;;;;;;;7.06;86.28;99359.82;1660835;86;26271;-53
2023/12/30 03:06:21;;;;;;;10.08;6.25;;;;;;;7.10;86.34;99357.56;1660887;86;25526;-54
2023/12/30 03:08:49;;;;;;;10.05;6.30;;;;;;;7.16;86.26;99359.56;1660751;85;28080;-52
2023/12/30 03:11:16;;;;;;;10.90;6.03;;;;;;;7.20;86.23;99351.13;1633923;86;25659;-51
2023/12/30 03:13:42;;;;;;;11.45;5.95;;;;;;;7.26;86.13;99354.47;1660733;86;25448;-51
2023/12/30 03:16:14;;;;;;;10.43;6.10;;;;;;;7.28;85.98;99340.94;1633977;86;25853;-51
2023/12/30 03:18:44;;;;;;;8.78;5.42;;;;;;;7.33;85.78;99330.60;1660753;85;25626;-53
2023/12/30 03:21:13;;;;;;;9.30;5.53;;;;;;;7.38;85.70;99335.06;1660750;86;27298;-51
2023/12/30 03:23:40;;;;;;;;;;;;;;;7.42;85.60;99340.86;1663110;86;25639;-51
2023/12/30 03:26:10;;;;;;;9.33;5.35;;;;;;;7.44;85.48;99337.30;1660807;85;25447;-51
2023/12/30 03:28:37;;;;;;;6.47;4.37;;;;;;;7.47;85.49;99327.80;1634619;86;25672;-52
2023/12/30 03:31:06;;;;;;;7.62;4.60;;;;;;;7.52;85.31;99316.89;1660745;86;25439;-51
2023/12/30 03:33:33;;;;;;;7.03;5.00;;;;;;;7.56;85.22;99312.49;1660836;86;27348;-52
2023/12/30 03:35:59;;;;;;;7.85;4.65;;;;;;;7.62;84.93;99311.78;1634129;86;25553;-51
2023/12/30 03:38:25;;;;;;;6.87;4.28;;;;;;;7.67;84.67;99312.42;1609930;86;25530;-52
2023/12/30 03:40:51;;;;;;;7.10;4.30;;;;;;;7.72;84.66;99299.37;1633998;86;25627;-52
2023/12/30 03:43:18;;;;;;;8.25;4.58;;;;;;;7.78;84.71;99287.37;1660744;86;25512;-51
2023/12/30 03:45:44;;;;;;;7.45;4.53;;;;;;;7.82;84.43;99276.76;1633919;86;27364;-51
2023/12/30 03:48:11;;;;;;;7.55;4.12;;;;;;;7.86;84.42;99279.05;1633961;86;25569;-51
2023/12/30 03:50:37;;;;;;;8.60;3.90;;;;;;;7.91;84.27;99282.94;1660729;86;25516;-51
2023/12/30 03:53:04;;;;;;;5.85;3.80;;;;;;;7.94;84.05;99280.17;1660665;86;25636;-51
2023/12/30 03:55:31;;;;;;;5.60;3.80;;;;;;;7.98;83.91;99282.47;1643808;85;25426;-52
2023/12/30 03:57:57;;;;;;;7.30;4.12;;;;;;;8.00;83.86;99272.98;1673228;85;27055;-53
2023/12/30 04:00:23;;;;;;;8.63;4.75;;;;;;;8.04;83.52;99267.75;1673198;85;25412;-52
2023/12/30 04:02:50;;;;;;;7.03;4.12;;;;;;;8.09;83.26;99270.28;1647915;85;25439;-51
2023/12/30 04:05:16;;;;;;;4.85;3.58;;;;;;;8.13;83.36;99279.30;1673258;85;25769;-51
2023/12/30 04:07:43;;;;;;;6.20;3.98;;;;;;;8.16;83.28;99275.98;1673303;85;25470;-51
2023/12/30 04:10:12;;;;;;;5.47;3.80;;;;;;;8.19;83.19;99267.83;1673269;85;27344;-52
2023/12/30 04:12:38;;;;;;;5.87;3.25;;;;;;;8.20;82.78;99270.18;1673147;85;26602;-51
2023/12/30 04:15:07;;;;;;;7.80;4.35;;;;;;;8.23;82.73;99271.47;1648158;85;25527;-51
2023/12/30 04:17:33;;;;;;;4.78;3.55;;;;;;;8.27;82.79;99258.14;1647865;85;25765;-52
2023/12/30 04:20:00;;;;;;;5.05;3.30;;;;;;;8.29;82.44;99253.22;1673295;85;25456;-51
2023/12/30 04:22:28;;;;;;;5.62;3.90;;;;;;;8.31;82.39;99249.65;1673256;85;26818;-52
2023/12/30 04:25:00;;;;;;;7.03;3.27;;;;;;;8.33;82.28;99254.97;1673171;85;25412;-53
2023/12/30 04:27:24;;;;;;;7.65;3.70;;;;;;;8.35;82.21;99251.39;1647700;85;25503;-53
2023/12/30 04:29:50;;;;;;;7.33;3.70;;;;;;;8.38;82.01;99247.28;1673213;85;26271;-52
2023/12/30 04:32:17;;;;;;;6.22;3.62;;;;;;;8.43;81.68;99247.69;1647942;85;25508;-51
2023/12/30 04:34:43;;;;;;;5.17;3.35;;;;;;;8.46;81.54;99260.52;1673249;85;27542;-51
2023/12/30 04:37:09;;;;;;;5.10;3.17;;;;;;;8.47;81.73;99256.73;1647893;85;25518;-51
2023/12/30 04:39:35;;;;;;;7.17;3.72;;;;;;;8.49;81.49;99249.89;1673228;85;25443;-52
2023/12/30 04:42:02;;;;;;;4.87;2.95;;;;;;;8.53;81.57;99258.12;1647871;85;26184;-51
2023/12/30 04:44:28;;;;;;;5.40;3.17;;;;;;;8.55;81.27;99249.97;1673281;85;25428;-51
2023/12/30 04:46:54;;;;;;;4.72;3.27;;;;;;;8.57;81.39;99249.66;1673239;85;27338;-54
2023/12/30 04:49:21;;;;;;;5.10;3.22;;;;;;;8.59;80.62;99252.81;1647775;85;25636;-51
2023/12/30 04:51:47;;;;;;;4.20;2.58;;;;;;;8.62;81.01;99262.96;1647882;85;25515;-53
2023/12/30 04:54:13;;;;;;;6.45;3.00;;;;;;;8.67;80.87;99252.01;1647054;85;25754;-51
2023/12/30 04:56:40;;;;;;;4.90;2.75;;;;;;;8.69;80.38;99247.64;1633946;86;25468;-51
2023/12/30 04:59:07;;;;;;;4.65;2.77;;;;;;;8.72;80.31;99253.18;1634060;86;27529;-55
2023/12/30 05:01:34;;;;;;;3.87;2.20;;;;;;;8.76;80.47;99242.54;1660588;85;25470;-53
2023/12/30 05:04:01;;;;;;;4.05;2.75;;;;;;;8.79;79.68;99239.20;1660677;85;25463;-52
2023/12/30 05:06:29;;;;;;;3.02;2.70;;;;;;;8.84;79.48;99240.38;1660629;86;25674;-53
2023/12/30 05:08:58;;;;;;;4.03;2.60;;;;;;;8.89;79.67;99246.94;1660673;85;25517;-53
2023/12/30 05:11:24;;;;;;;4.45;2.52;;;;;;;8.93;78.75;99254.61;1660782;86;27357;-51
2023/12/30 05:13:51;;;;;;;3.60;2.67;;;;;;;8.98;79.04;99245.55;1633828;86;25579;-54
2023/12/30 05:16:17;;;;;;;4.12;3.02;;;;;;;9.01;79.52;99242.75;1660666;86;25492;-51
2023/12/30 05:18:44;;;;;;;3.12;2.60;;;;;;;9.00;79.72;99242.54;1660594;86;26255;-55
2023/12/30 05:21:15;;;;;;;5.03;2.67;;;;;;;8.98;79.96;99240.95;1633998;86;25445;-52
2023/12/30 05:23:42;;;;;;;3.77;2.80;;;;;;;8.96;79.68;99252.63;1634038;86;27353;-51
2023/12/30 05:26:09;;;;;;;4.87;3.08;;;;;;;8.94;79.49;99240.59;1633866;86;25534;-54
2023/12/30 05:28:35;;;;;;;4.45;2.90;;;;;;;8.92;79.56;99244.95;1633938;86;25413;-52
2023/12/30 05:31:02;;;;;;;6.05;3.00;;;;;;;8.90;79.04;99247.16;1660621;86;25564;-53
2023/12/30 05:33:28;;;;;;;4.42;2.58;;;;;;;8.90;79.18;99243.68;1634031;86;25508;-52
2023/12/30 05:35:55;;;;;;;4.03;2.58;;;;;;;8.90;78.88;99240.98;1633868;86;27415;-53
2023/12/30 05:38:22;;;;;;;4.17;2.33;;;;;;;8.90;78.86;99247.73;1660533;86;25480;-52
2023/12/30 05:40:48;;;;;;;6.62;3.10;;;;;;;8.90;79.37;99250.42;1660614;86;25463;-54
2023/12/30 05:43:15;;;;;;;4.45;2.85;;;;;;;8.90;79.15;99242.33;1660611;86;25767;-55
2023/12/30 05:45:43;;;;;;;4.47;3.12;;;;;;;8.90;79.16;99242.33;1634054;86;25449;-54
2023/12/30 05:48:09;;;;;;;3.58;2.35;;;;;;;8.89;78.90;99242.12;1660550;86;27366;-53
2023/12/30 05:50:36;;;;;;;4.05;2.55;;;;;;;8.90;78.45;99237.72;1660561;86;25428;-55
2023/12/30 05:53:02;;;;;;;4.83;2.70;;;;;;;8.93;77.92;99240.34;1612282;86;25550;-55
2023/12/30 05:55:29;;;;;;;5.80;2.90;;;;;;;8.94;78.48;99244.07;1667257;85;25621;-53
2023/12/30 05:57:55;;;;;;;3.85;2.75;;;;;;;8.95;78.39;99244.28;1675915;85;25427;-55
2023/12/30 06:00:22;;;;;;;4.45;2.65;;;;;;;8.96;78.25;99249.92;1675907;85;28072;-53
2023/12/30 06:02:49;;;;;;;3.27;2.35;;;;;;;8.95;78.28;99257.77;1675806;85;25780;-52
2023/12/30 06:05:15;;;;;;;3.55;2.30;;;;;;;8.95;78.25;99255.64;1675876;85;25121;-51
2023/12/30 06:07:42;;;;;;;3.83;2.72;;;;;;;8.96;78.26;99252.63;1652348;85;26336;-51
2023/12/30 06:10:08;;;;;;;3.47;2.20;;;;;;;8.94;78.40;99262.95;1652409;85;25456;-52
2023/12/30 06:12:35;;;;;;;4.87;2.77;;;;;;;8.95;78.39;99261.81;1675880;85;27895;-51
2023/12/30 06:15:01;;;;;;;4.15;2.62;;;;;;;8.94;77.67;99268.34;1652218;85;25467;-51
2023/12/30 06:17:27;;;;;;;5.58;3.08;;;;;;;8.94;77.88;99274.30;1652353;85;25487;-53
2023/12/30 06:19:53;;;;;;;3.72;2.70;;;;;;;8.94;77.82;99279.70;1675805;85;26319;-51
2023/12/30 06:22:20;;;;;;;3.27;2.70;;;;;;;8.93;78.07;99280.23;1652430;85;25491;-55
2023/12/30 06:24:46;;;;;;;2.92;2.35;;;;;;;8.92;78.66;99287.30;1675870;85;27455;-53
2023/12/30 06:27:12;;;;;;;3.70;2.62;;;;;;;8.91;78.24;99310.78;1675795;85;25457;-53
2023/12/30 06:29:39;;;;;;;5.90;2.47;;;;;;;8.88;78.18;99293.11;1675882;85;25454;-51
2023/12/30 06:32:06;;;;;;;6.65;2.40;;;;;;;8.85;78.26;99291.05;1675844;85;26356;-51
2023/12/30 06:34:34;;;;;;;3.87;1.70;;;;;;;8.83;78.53;99298.67;1675917;85;25506;-52
2023/12/30 06:37:00;;;;;;;2.00;1.35;;;;;;;8.79;78.39;99298.53;1652741;85;27349;-51
2023/12/30 06:39:27;;;;;;;1.00;0.90;;;;;;;8.76;78.01;99316.13;1652224;85;25507;-52
2023/12/30 06:41:53;;;;;;;1.05;1.00;;;;;;;8.70;78.34;99324.70;1675877;85;25120;-51
2023/12/30 06:44:20;;;;;;;1.85;0.85;;;;;;;8.59;79.39;99341.77;1675835;85;25619;-53
2023/12/30 06:46:46;;;;;;;1.40;0.80;;;;;;;8.46;81.18;99357.55;1630470;85;25471;-54
2023/12/30 06:49:13;;;;;;;1.00;0.80;;;;;;;8.23;81.52;99354.97;1675868;85;27660;-52
2023/12/30 06:51:42;;;;;;;0.80;0.65;;;;;;;8.06;82.54;99345.53;1675778;85;25429;-52
2023/12/30 06:54:09;;;;;;;;;;;;;;;7.91;84.19;99346.77;1654785;85;25535;-52
2023/12/30 06:56:35;;;;;;;1.17;0.85;;;;;;;7.77;84.01;99349.03;1664084;85;26110;-55
2023/12/30 06:59:01;;;;;;;0.90;0.90;;;;;;;7.65;85.56;99359.61;1660630;85;25428;-54
2023/12/30 07:01:28;;;;;;;1.50;0.70;;;;;;;7.55;85.53;99345.87;1660592;86;28115;-53
2023/12/30 07:03:55;;;;;;;0.90;0.90;;;;;;;7.47;85.88;99339.38;1633910;86;25737;-51
2023/12/30 07:06:22;;;;;;;1.55;1.07;;;;;;;7.41;85.98;99339.27;1660616;86;25522;-52
2023/12/30 07:08:48;;;;;;;0.70;0.70;;;;;;;7.34;86.09;99336.23;1633832;86;25647;-53
2023/12/30 07:11:14;;;;;;;1.30;0.80;;;;;;;7.29;86.56;99323.70;1660633;86;25454;-54
2023/12/30 07:13:41;;;;;;;1.62;0.98;;;;;;;7.25;86.41;99337.55;1660623;86;27340;-55
2023/12/30 07:16:07;;;;;;;0.82;0.82;;;;;;;7.20;87.01;99348.44;1660538;86;25475;-52
2023/12/30 07:18:34;;;;;;;1.15;0.90;;;;;;;7.17;87.16;99353.62;1660592;86;25454;-52
2023/12/30 07:21:01;;;;;;;1.65;1.07;;;;;;;7.14;87.37;99362.33;1660576;86;25726;-52
2023/12/30 07:23:27;;;;;;;1.22;1.00;;;;;;;7.10;87.68;99354.09;1660628;85;25565;-52
2023/12/30 07:25:53;;;;;;;1.20;0.95;;;;;;;7.09;88.22;99349.23;1660604;85;27352;-53
2023/12/30 07:28:19;;;;;;;1.20;1.10;;;;;;;7.08;88.04;99350.89;1633920;86;25513;-51
2023/12/30 07:30:46;;;;;;;1.70;1.10;;;;;;;7.08;88.25;99354.39;1660616;85;25469;-52
2023/12/30 07:33:12;;;;;;;3.20;1.02;;;;;;;7.09;88.28;99355.96;1660662;85;25751;-53
2023/12/30 07:35:39;;;;;;;2.17;1.25;;;;;;;7.11;88.60;99361.82;1660736;86;25423;-52
2023/12/30 07:38:05;;;;;;;1.45;1.15;;;;;;;7.13;88.83;99359.38;1660694;86;27915;-52
2023/12/30 07:40:31;;;;;;;2.70;1.45;;;;;;;7.15;88.84;99363.89;1660638;86;25516;-52
2023/12/30 07:42:57;;;;;;;1.60;1.25;;;;;;;7.17;88.92;99362.50;1660728;86;25503;-54
2023/12/30 07:45:24;;;;;;;1.32;1.22;;;;;;;7.20;89.16;99363.23;1660679;86;25617;-52
2023/12/30 07:47:50;;;;;;;2.08;1.50;;;;;;;7.21;89.06;99366.71;1660751;86;25523;-53
2023/12/30 07:50:17;;;;;;;1.70;1.60;;;;;;;7.24;89.04;99369.57;1660704;86;27550;-52
2023/12/30 07:52:43;;;;;;;2.15;1.70;;;;;;;7.25;89.68;99365.79;1660638;86;25431;-53
2023/12/30 07:55:09;;;;;;;1.82;1.50;;;;;;;7.26;89.75;99367.92;1660664;85;25527;-55
2023/12/30 07:57:36;;;;;;;2.75;1.65;;;;;;;7.25;89.45;99371.17;1634220;86;25612;-52
2023/12/30 08:00:04;;;;;;;2.15;1.72;;;;;;;7.31;89.44;99375.07;1660733;85;25498;-54
2023/12/30 08:02:30;;;;;;;2.40;1.62;;;;;;;7.34;89.63;99369.86;1660729;85;28103;-54
2023/12/30 08:04:57;;;;;;;2.77;1.85;;;;;;;7.38;89.62;99360.62;1633973;86;25521;-51
2023/12/30 08:07:25;;;;;;;4.28;2.25;;;;;;;7.43;89.78;99376.06;1634172;86;25525;-54
2023/12/30 08:09:51;;;;;;;3.72;1.70;;;;;;;7.45;89.85;99372.51;1609933;86;25591;-54
2023/12/30 08:12:17;;;;;;;3.65;2.02;;;;;;;7.47;89.67;99370.32;1633998;86;25505;-51
2023/12/30 08:14:43;;;;;;;2.83;1.85;;;;;;;7.54;89.80;99360.42;1660717;86;27351;-55
2023/12/30 08:17:09;;;;;;;3.02;1.90;;;;;;;7.59;89.79;99372.95;1660645;85;25558;-55
2023/12/30 08:19:36;;;;;;;5.97;1.90;;;;;;;7.61;89.33;99370.74;1634102;86;25500;-52
2023/12/30 08:22:03;;;;;;;5.47;2.20;;;;;;;7.63;89.16;99384.70;1634156;86;25578;-52
2023/12/30 08:24:29;;;;;;;2.47;1.72;;;;;;;7.66;88.97;99389.44;1634014;86;25450;-52
2023/12/30 08:26:55;;;;;;;3.37;1.70;;;;;;;7.67;88.85;99390.48;1660692;86;27359;-51
2023/12/30 08:29:21;;;;;;;5.75;1.67;;;;;;;7.67;88.54;99397.20;1660648;86;25485;-52
2023/12/30 08:31:48;;;;;;;3.62;1.80;;;;;;;7.68;88.46;99403.41;1660702;85;25500;-51
2023/12/30 08:34:17;;;;;;;3.33;1.70;;;;;;;7.67;88.49;99417.40;1633847;86;25729;-51
2023/12/30 08:36:44;;;;;;;1.70;1.60;;;;;;;7.66;88.24;99407.75;1660841;85;25493;-51
2023/12/30 08:39:10;;;;;;;3.98;1.80;;;;;;;7.65;87.91;99408.06;1660659;86;27895;-51
2023/12/30 08:41:37;;;;;;;1.50;1.40;;;;;;;7.65;87.61;99396.73;1660595;86;25472;-51
2023/12/30 08:44:03;;;;;;;2.60;1.70;;;;;;;7.64;87.53;99397.86;1660675;86;25441;-51
2023/12/30 08:46:30;;;;;;;4.70;1.85;;;;;;;7.64;87.51;99405.93;1633848;86;26365;-51
2023/12/30 08:48:56;;;;;;;3.42;2.60;;;;;;;7.64;87.73;99425.30;1634095;86;25446;-53
2023/12/30 08:51:23;;;;;;;3.90;1.98;;;;;;;7.64;88.19;99422.08;1634053;86;28052;-53
2023/12/30 08:53:49;;;;;;;2.50;2.12;;;;;;;7.63;88.71;99415.66;1633879;86;25456;-52
2023/12/30 08:56:15;;;;;;;3.15;1.72;;;;;;;7.56;89.07;99416.10;1660591;86;25526;-53
2023/12/30 08:58:42;;;;;;;2.33;1.98;;;;;;;7.51;89.60;99426.19;1660602;85;25584;-53
2023/12/30 09:01:08;;;;;;;2.85;2.00;;;;;;;7.43;89.78;99416.42;1660700;85;25411;-52
2023/12/30 09:03:34;;;;;;;2.52;1.75;;;;;;;7.38;89.99;99434.05;1633876;86;27289;-53
2023/12/30 09:06:01;;;;;;;2.00;1.72;;;;;;;7.31;90.52;99435.04;1660591;86;25439;-57
2023/12/30 09:08:27;;;;;;;4.03;1.80;;;;;;;7.27;91.20;99444.81;1660671;86;25502;-56
2023/12/30 09:10:53;;;;;;;2.47;2.02;;;;;;;7.21;91.24;99451.44;1660632;85;25630;-54
2023/12/30 09:13:20;;;;;;;4.35;2.00;;;;;;;7.14;91.60;99459.14;1660692;86;25501;-56
2023/12/30 09:15:46;;;;;;;2.42;2.12;;;;;;;7.08;92.09;99455.77;1633978;86;27588;-56
2023/12/30 09:18:12;;;;;;;3.37;1.98;;;;;;;7.01;92.21;99452.16;1660584;86;25566;-56
2023/12/30 09:20:39;;;;;;;5.33;2.00;;;;;;;6.98;92.59;99451.97;1660647;86;25480;-54
2023/12/30 09:23:05;;;;;;;2.65;1.90;;;;;;;6.90;93.41;99440.86;1660621;85;25677;-57
2023/12/30 09:25:31;;;;;;;2.67;1.92;;;;;;;6.85;93.39;99450.94;1660707;86;25403;-55
2023/12/30 09:27:57;;;;;;;3.08;2.02;;;;;;;6.78;93.31;99482.83;1660667;86;27352;-56
2023/12/30 09:30:23;;;;;;;3.10;2.15;;;;;;;6.69;93.79;99480.04;1660587;86;25587;-57
2023/12/30 09:32:50;;;;;;;2.50;1.80;;;;;;;6.61;94.23;99476.75;1633955;86;25532;-56
2023/12/30 09:35:16;;;;;;;3.80;1.90;;;;;;;6.53;94.89;99501.08;1633832;86;25627;-59
2023/12/30 09:37:43;;;;;;;2.50;1.70;;;;;;;6.41;94.35;99508.30;1660695;86;25448;-59
2023/12/30 09:40:09;;;;;;;3.40;1.80;;;;;;;6.30;94.26;99500.20;1633876;86;27355;-59
2023/12/30 09:42:37;;;;;;;2.52;1.12;;;;;;;6.24;94.45;99494.70;1660621;85;25479;-60
2023/12/30 09:45:05;;;;;;;2.42;1.27;;;;;;;6.15;94.84;99489.23;1660691;86;25426;-59
2023/12/30 09:47:33;;;;;;;1.95;1.00;;;;;;;6.07;94.56;99484.55;1633856;86;25692;-59
2023/12/30 09:49:59;;;;;;;2.65;1.10;;;;;;;6.01;95.02;99484.39;1660746;85;25495;-60
2023/12/30 09:52:25;;;;;;;1.87;1.75;;;;;;;5.95;95.12;99479.64;1633857;86;28004;-60
2023/12/30 09:54:52;;;;;;;2.98;1.40;;;;;;;5.88;94.92;99488.09;1633715;86;25496;-57
2023/12/30 09:57:19;;;;;;;1.47;1.10;;;;;;;5.83;95.14;99492.20;1633803;86;25439;-60
2023/12/30 09:59:49;;;;;;;1.80;1.20;;;;;;;5.81;95.46;99489.03;1660554;86;25681;-60
2023/12/30 10:02:16;;;;;;;3.52;1.52;;;;;;;5.77;95.46;99489.36;1660683;86;25495;-61
2023/12/30 10:04:43;;;;;;;3.75;1.47;;;;;;;5.75;95.64;99504.97;1660643;85;27482;-60
2023/12/30 10:07:10;;;;;;;2.77;1.30;;;;;;;5.71;95.95;99495.38;1660530;86;25507;-60
2023/12/30 10:09:36;;;;;;;2.83;1.40;;;;;;;5.68;95.90;99485.23;1660643;85;25447;-59
2023/12/30 10:12:03;;;;;;;4.08;1.20;;;;;;;5.65;96.15;99468.92;1660565;86;25630;-60
2023/12/30 10:14:30;;;;;;;1.60;1.20;;;;;;;5.67;96.80;99466.20;1633892;86;25480;-59
2023/12/30 10:16:56;;;;;;;3.50;1.50;;;;;;;5.71;97.55;99463.17;1660644;85;27937;-61
2023/12/30 10:19:22;;;;;;;2.87;1.50;;;;;;;5.74;97.36;99471.98;1660527;86;25523;-58
2023/12/30 10:21:49;;;;;;;2.50;1.35;;;;;;;5.79;97.83;99476.47;1660631;85;25523;-59
2023/12/30 10:24:16;;;;;;;6.25;1.90;;;;;;;5.82;97.73;99486.58;1660602;86;25704;-60
2023/12/30 10:26:43;;;;;;;5.05;1.77;;;;;;;5.87;98.17;99481.67;1660657;86;25523;-59
2023/12/30 10:29:11;;;;;;;2.40;2.00;;;;;;;5.94;98.72;99474.83;1660635;86;27331;-59
2023/12/30 10:31:38;;;;;;;2.65;1.90;;;;;;;5.96;98.29;99482.06;1660648;86;25496;-60
2023/12/30 10:34:05;;;;;;;2.47;1.85;;;;;;;6.00;98.48;99473.42;1633940;86;25546;-57
2023/12/30 10:36:32;;;;;;;4.42;2.40;;;;;;;6.20;99.20;99476.23;1660614;86;26189;-60
2023/12/30 10:39:01;;;;;;;2.62;2.42;;;;;;;6.58;100.00;99482.16;1633895;86;25517;-59
2023/12/30 10:41:27;;;;;;;5.75;2.72;;;;;;;6.96;100.00;99482.41;1660881;86;27421;-59
2023/12/30 10:43:54;;;;;;;2.42;2.17;;;;;;;6.91;99.22;99480.09;1660597;85;25405;-59
2023/12/30 10:46:25;;;;;;;3.75;2.50;;;;;;;6.91;98.83;99481.97;1634142;86;25457;-58
2023/12/30 10:49:03;;;;;;;4.47;2.50;;;;;;;6.87;98.18;99477.75;1660695;86;25666;-58
2023/12/30 10:51:25;;;;;;;4.58;2.60;;;;;;;6.80;97.35;99472.00;1658607;85;25515;-59
2023/12/30 10:54:03;;;;;;;6.30;3.20;;;;;;;6.75;97.05;99482.09;1634518;86;27377;-58
2023/12/30 10:56:39;;;;;;;4.12;2.70;;;;;;;6.72;97.36;99488.31;1655731;85;25417;-59
2023/12/30 10:59:02;;;;;;;11.55;2.90;;;;;;;6.67;97.40;99493.78;1659018;86;25463;-58
2023/12/30 11:01:30;;;;;;;3.20;2.17;;;;;;;6.61;97.05;99485.59;1660734;86;25638;-58
2023/12/30 11:03:58;;;;;;;4.58;2.25;;;;;;;6.58;97.18;99490.22;1634163;86;25521;-58
2023/12/30 11:06:53;;;;;;;2.85;2.10;;;;;;;6.57;97.57;99484.59;1660715;86;27994;-58
2023/12/30 11:09:24;;;;;;;3.20;2.00;;;;;;;6.56;96.98;99496.45;1633941;86;25497;-58
2023/12/30 11:11:52;;;;;;;5.62;2.05;;;;;;;6.55;97.52;99494.85;1633937;86;25437;-58
2023/12/30 11:14:22;;;;;;;3.42;2.37;;;;;;;6.54;97.47;99495.97;1660678;86;25686;-57
2023/12/30 11:16:52;;;;;;;2.35;1.95;;;;;;;6.51;96.81;99501.38;1634158;86;25523;-57
2023/12/30 11:19:33;;;;;;;4.83;2.10;;;;;;;6.49;96.52;99506.27;1634615;86;27308;-58
2023/12/30 11:22:04;;;;;;;2.60;1.70;;;;;;;6.48;96.18;99499.84;1633752;86;25721;-57
2023/12/30 11:24:31;;;;;;;3.50;2.08;;;;;;;6.45;96.26;99507.97;1660773;85;25408;-59
2023/12/30 11:26:58;;;;;;;2.85;1.95;;;;;;;6.45;95.85;99513.87;1634167;86;25632;-59
2023/12/30 11:29:27;;;;;;;5.15;1.90;;;;;;;6.42;95.48;99511.78;1660751;86;25514;-59
2023/12/30 11:31:57;;;;;;;3.60;2.08;;;;;;;6.47;96.17;99521.89;1634697;86;27542;-60
2023/12/30 11:34:26;;;;;;;4.47;1.92;;;;;;;6.48;95.36;99515.41;1660655;86;25424;-58
2023/12/30 11:36:53;;;;;;;4.53;2.10;;;;;;;6.49;94.82;99504.13;1660855;85;25503;-58
2023/12/30 11:39:27;;;;;;;3.22;2.25;;;;;;;6.52;94.98;99505.67;1634016;86;26412;-59